Time;durP1;ratioP1;P1;durP2;ratioP2;P2;SDS_P1;SDS_P2;PMS_P1;PMS_P2;Temp;Humidity;BMP_temperature;BMP_pressure;BME280_temperature;BME280_humidity;BME280_pressure;Samples;Min_cycle;Max_cycle;Signal;HPM_P1;HPM_P2
2022/01/09 00:01:18;;;;;;;4.65;1.38;;;;;;;;;;5135784;27;20029;-78
2022/01/09 00:03:44;;;;;;;7.18;1.58;;;;;;;;;;5136269;27;20023;-78
2022/01/09 00:06:10;;;;;;;3.70;1.48;;;;;;;;;;5135765;27;20385;-78
2022/01/09 00:08:38;;;;;;;6.05;1.27;;;;;;;;;;5135640;27;20445;-79
2022/01/09 00:11:04;;;;;;;5.90;1.20;;;;;;;;;;5135709;27;20020;-78
2022/01/09 00:13:30;;;;;;;6.70;1.63;;;;;;;;;;5135397;27;20022;-79
2022/01/09 00:15:56;;;;;;;5.82;1.10;;;;;;;;;;5135690;27;20031;-78
2022/01/09 00:18:22;;;;;;;6.22;1.63;;;;;;;;;;5135484;27;20420;-78
2022/01/09 00:20:48;;;;;;;5.10;1.13;;;;;;;;;;5117339;27;20035;-78
2022/01/09 00:23:14;;;;;;;5.57;1.52;;;;;;;;;;5135795;27;20027;-77
2022/01/09 00:25:40;;;;;;;7.88;1.55;;;;;;;;;;5135175;27;20072;-78
2022/01/09 00:28:06;;;;;;;7.57;1.50;;;;;;;;;;5135528;27;20466;-78
2022/01/09 00:30:32;;;;;;;3.60;1.23;;;;;;;;;;5135181;27;20027;-78
2022/01/09 00:32:58;;;;;;;5.18;1.40;;;;;;;;;;5135316;27;20063;-79
2022/01/09 00:35:24;;;;;;;4.47;1.77;;;;;;;;;;5116566;27;20019;-78
2022/01/09 00:37:50;;;;;;;4.93;1.42;;;;;;;;;;5135245;27;20102;-78
2022/01/09 00:40:17;;;;;;;6.03;1.27;;;;;;;;;;5135467;27;20034;-77
2022/01/09 00:42:43;;;;;;;6.88;1.58;;;;;;;;;;5116820;27;20399;-77
2022/01/09 00:45:10;;;;;;;4.72;1.35;;;;;;;;;;5116552;27;20466;-77
2022/01/09 00:47:36;;;;;;;6.00;2.05;;;;;;;;;;5134804;27;20055;-78
2022/01/09 00:50:03;;;;;;;6.68;1.80;;;;;;;;;;5135071;27;20026;-77
2022/01/09 00:52:29;;;;;;;5.70;1.83;;;;;;;;;;5134753;27;20031;-78
2022/01/09 00:54:55;;;;;;;6.40;1.77;;;;;;;;;;5134831;27;20118;-76
2022/01/09 00:57:22;;;;;;;4.75;1.83;;;;;;;;;;5134593;27;20027;-77
2022/01/09 00:59:49;;;;;;;5.32;1.65;;;;;;;;;;5134856;27;20368;-77
2022/01/09 01:02:15;;;;;;;6.22;1.60;;;;;;;;;;5134996;27;20027;-77
2022/01/09 01:04:41;;;;;;;8.00;2.38;;;;;;;;;;5134580;27;20120;-77
2022/01/09 01:07:07;;;;;;;4.10;1.58;;;;;;;;;;5134716;27;20027;-78
2022/01/09 01:09:33;;;;;;;4.03;1.20;;;;;;;;;;5115844;27;20071;-77
2022/01/09 01:12:00;;;;;;;6.78;1.55;;;;;;;;;;5133317;27;20529;-78
2022/01/09 01:14:27;;;;;;;6.28;1.90;;;;;;;;;;5134206;27;20517;-77
2022/01/09 01:16:53;;;;;;;4.63;1.60;;;;;;;;;;5115945;27;20485;-77
2022/01/09 01:19:19;;;;;;;4.10;1.30;;;;;;;;;;5134314;27;20065;-77
2022/01/09 01:21:45;;;;;;;5.97;1.30;;;;;;;;;;5134760;27;20076;-77
2022/01/09 01:24:12;;;;;;;4.28;1.17;;;;;;;;;;5134473;27;20019;-77
2022/01/09 01:26:38;;;;;;;7.35;1.67;;;;;;;;;;5134022;27;20747;-76
2022/01/09 01:29:04;;;;;;;4.60;1.60;;;;;;;;;;5134295;27;20050;-77
2022/01/09 01:31:30;;;;;;;4.57;1.70;;;;;;;;;;5133965;27;20074;-77
2022/01/09 01:33:56;;;;;;;6.00;1.77;;;;;;;;;;5115625;27;20039;-76
2022/01/09 01:36:22;;;;;;;5.20;1.42;;;;;;;;;;5133859;27;20444;-77
2022/01/09 01:38:48;;;;;;;5.88;1.95;;;;;;;;;;5134071;27;20035;-76
2022/01/09 01:41:14;;;;;;;4.97;1.33;;;;;;;;;;5115810;27;20019;-77
2022/01/09 01:43:40;;;;;;;4.18;1.02;;;;;;;;;;5133728;27;20087;-76
2022/01/09 01:46:06;;;;;;;7.53;1.23;;;;;;;;;;5133869;27;20474;-77
2022/01/09 01:48:32;;;;;;;5.53;1.50;;;;;;;;;;5133907;27;20019;-77
2022/01/09 01:50:58;;;;;;;4.78;1.30;;;;;;;;;;5133780;27;20087;-77
2022/01/09 01:53:24;;;;;;;4.88;1.42;;;;;;;;;;5133503;27;20479;-77
2022/01/09 01:55:55;;;;;;;4.13;1.30;;;;;;;;;;5133835;27;20023;-77
2022/01/09 01:58:22;;;;;;;5.13;1.48;;;;;;;;;;5133684;27;20049;-77
2022/01/09 02:00:48;;;;;;;5.43;1.98;;;;;;;;;;5133761;27;20489;-77
2022/01/09 02:03:14;;;;;;;3.33;0.90;;;;;;;;;;5115501;27;20030;-77
2022/01/09 02:05:43;;;;;;;4.32;1.27;;;;;;;;;;5133181;27;20035;-77
2022/01/09 02:08:10;;;;;;;4.82;1.10;;;;;;;;;;5133798;27;20428;-78
2022/01/09 02:10:39;;;;;;;3.67;1.50;;;;;;;;;;5114791;27;20117;-78
2022/01/09 02:13:05;;;;;;;4.57;1.45;;;;;;;;;;5133173;27;20039;-78
2022/01/09 02:15:31;;;;;;;6.00;1.58;;;;;;;;;;5133127;27;20015;-77
2022/01/09 02:17:58;;;;;;;4.35;1.40;;;;;;;;;;5133394;27;20026;-78
2022/01/09 02:20:24;;;;;;;4.05;1.20;;;;;;;;;;5133111;27;20030;-78
2022/01/09 02:22:50;;;;;;;4.10;1.58;;;;;;;;;;5132961;27;20019;-78
2022/01/09 02:25:16;;;;;;;7.90;1.67;;;;;;;;;;5115084;27;20030;-78
2022/01/09 02:27:42;;;;;;;5.72;1.40;;;;;;;;;;5132839;27;20398;-78
2022/01/09 02:30:09;;;;;;;4.78;1.35;;;;;;;;;;5133029;27;20026;-78
2022/01/09 02:32:35;;;;;;;4.25;1.40;;;;;;;;;;5132757;27;20398;-78
2022/01/09 02:35:01;;;;;;;4.07;1.15;;;;;;;;;;5132951;27;20027;-78
2022/01/09 02:37:27;;;;;;;3.95;1.13;;;;;;;;;;5132769;27;20030;-77
2022/01/09 02:39:53;;;;;;;4.93;1.45;;;;;;;;;;5132931;27;20020;-77
2022/01/09 02:42:19;;;;;;;4.38;1.17;;;;;;;;;;5114186;27;20023;-79
2022/01/09 02:44:45;;;;;;;4.53;1.58;;;;;;;;;;5132968;27;20479;-79
2022/01/09 02:47:11;;;;;;;5.25;1.40;;;;;;;;;;5132781;27;20394;-78
2022/01/09 02:49:37;;;;;;;4.65;1.38;;;;;;;;;;5132523;27;20084;-79
2022/01/09 02:52:10;;;;;;;6.60;1.40;;;;;;;;;;5132777;27;20027;-80
2022/01/09 02:57:21;;;;;;;5.93;1.33;;;;;;;;;;5132653;27;20088;-77
2022/01/09 02:59:47;;;;;;;4.22;1.08;;;;;;;;;;5132879;27;20034;-79
2022/01/09 03:02:13;;;;;;;5.93;1.48;;;;;;;;;;5132914;27;20022;-80
2022/01/09 03:04:39;;;;;;;3.53;1.30;;;;;;;;;;5132326;27;20027;-80
2022/01/09 03:07:05;;;;;;;6.18;1.30;;;;;;;;;;5132472;27;20063;-80
2022/01/09 03:09:31;;;;;;;3.25;1.20;;;;;;;;;;5132085;27;20034;-79
2022/01/09 03:11:57;;;;;;;5.78;1.60;;;;;;;;;;5132301;27;20475;-80
2022/01/09 03:14:23;;;;;;;4.80;1.40;;;;;;;;;;5113544;27;20043;-80
2022/01/09 03:16:49;;;;;;;10.77;1.75;;;;;;;;;;5132277;27;20099;-79
2022/01/09 03:19:15;;;;;;;4.00;1.33;;;;;;;;;;5132566;27;20406;-80
2022/01/09 03:21:41;;;;;;;5.43;1.20;;;;;;;;;;5132118;27;20015;-79
2022/01/09 03:24:07;;;;;;;4.35;1.27;;;;;;;;;;5132124;27;20038;-79
2022/01/09 03:26:33;;;;;;;4.13;1.20;;;;;;;;;;5132146;27;20042;-79
2022/01/09 03:28:59;;;;;;;5.78;1.48;;;;;;;;;;5132262;28;20088;-79
2022/01/09 03:31:25;;;;;;;4.13;1.38;;;;;;;;;;5113732;28;20413;-79
2022/01/09 03:33:51;;;;;;;6.10;1.35;;;;;;;;;;5132043;27;20084;-80
2022/01/09 03:36:17;;;;;;;3.83;1.33;;;;;;;;;;5136648;27;20061;-79
2022/01/09 03:38:43;;;;;;;5.65;1.58;;;;;;;;;;5136859;27;20475;-79
2022/01/09 03:41:09;;;;;;;4.82;1.13;;;;;;;;;;5136377;27;20058;-79
2022/01/09 03:43:35;;;;;;;4.72;1.25;;;;;;;;;;5136061;27;20028;-78
2022/01/09 03:46:01;;;;;;;6.80;1.27;;;;;;;;;;5136352;27;20479;-80
2022/01/09 03:48:29;;;;;;;5.90;1.55;;;;;;;;;;5136073;27;20019;-79
2022/01/09 03:50:55;;;;;;;3.70;1.10;;;;;;;;;;5136036;27;20056;-78
2022/01/09 03:53:21;;;;;;;4.43;1.30;;;;;;;;;;5135794;27;20031;-79
2022/01/09 03:55:47;;;;;;;4.72;1.48;;;;;;;;;;5136403;27;20023;-79
2022/01/09 03:58:13;;;;;;;3.47;1.05;;;;;;;;;;5136383;27;20467;-79
2022/01/09 04:00:39;;;;;;;5.50;1.55;;;;;;;;;;5135878;27;20030;-78
2022/01/09 04:03:05;;;;;;;6.10;1.33;;;;;;;;;;5135913;27;20079;-78
2022/01/09 04:05:31;;;;;;;4.88;1.33;;;;;;;;;;5135723;27;20140;-78
2022/01/09 04:07:57;;;;;;;3.70;1.30;;;;;;;;;;5135868;27;20023;-79
2022/01/09 04:10:28;;;;;;;4.00;1.50;;;;;;;;;;5135552;27;20028;-80
2022/01/09 04:12:59;;;;;;;4.68;1.17;;;;;;;;;;5135653;27;20029;-80
2022/01/09 04:15:25;;;;;;;3.72;1.10;;;;;;;;;;5135702;27;20107;-80
2022/01/09 04:17:55;;;;;;;4.43;1.48;;;;;;;;;;5135607;27;20416;-79
2022/01/09 04:20:31;;;;;;;5.50;1.65;;;;;;;;;;5135239;27;20106;-79
2022/01/09 04:22:57;;;;;;;5.00;1.50;;;;;;;;;;5135661;27;20372;-79
2022/01/09 04:25:23;;;;;;;3.42;1.17;;;;;;;;;;5124282;27;20028;-80
2022/01/09 04:27:50;;;;;;;6.75;1.55;;;;;;;;;;5115113;28;20059;-79
2022/01/09 04:30:17;;;;;;;5.90;1.20;;;;;;;;;;5115191;28;20027;-79
2022/01/09 04:32:43;;;;;;;4.30;1.20;;;;;;;;;;5114364;28;20062;-79
2022/01/09 04:35:10;;;;;;;7.45;1.90;;;;;;;;;;5114787;28;20031;-79
2022/01/09 04:37:37;;;;;;;3.67;1.33;;;;;;;;;;5114552;28;20045;-79
2022/01/09 04:40:04;;;;;;;5.00;1.48;;;;;;;;;;5114668;28;20027;-79
2022/01/09 04:42:38;;;;;;;3.20;1.10;;;;;;;;;;5114400;28;20080;-80
2022/01/09 04:45:06;;;;;;;7.10;1.52;;;;;;;;;;5095883;28;20037;-79
2022/01/09 04:47:32;;;;;;;4.78;1.70;;;;;;;;;;5113911;28;20478;-80
2022/01/09 04:49:59;;;;;;;5.88;1.88;;;;;;;;;;5114616;28;20024;-79
2022/01/09 04:52:31;;;;;;;5.78;1.58;;;;;;;;;;5114320;28;20036;-79
2022/01/09 04:54:57;;;;;;;5.15;1.17;;;;;;;;;;5114316;28;20114;-79
2022/01/09 04:57:23;;;;;;;6.03;1.40;;;;;;;;;;5114079;28;20047;-78
2022/01/09 04:59:49;;;;;;;6.07;1.35;;;;;;;;;;5114533;28;20027;-78
2022/01/09 05:02:15;;;;;;;4.65;1.77;;;;;;;;;;5114420;28;20098;-79
2022/01/09 05:04:41;;;;;;;4.07;1.20;;;;;;;;;;5113948;28;20027;-79
2022/01/09 05:07:07;;;;;;;4.65;1.17;;;;;;;;;;5114032;28;20391;-79
2022/01/09 05:09:33;;;;;;;5.47;1.63;;;;;;;;;;5113843;28;20027;-79
2022/01/09 05:11:59;;;;;;;4.65;1.10;;;;;;;;;;5114096;28;20039;-78
2022/01/09 05:14:25;;;;;;;4.28;1.27;;;;;;;;;;5113463;28;20042;-78
2022/01/09 05:16:51;;;;;;;6.40;1.27;;;;;;;;;;5113900;28;20027;-79
2022/01/09 05:19:20;;;;;;;4.90;1.70;;;;;;;;;;5095573;28;20457;-78
2022/01/09 05:21:47;;;;;;;6.13;1.70;;;;;;;;;;5114256;28;20080;-78
2022/01/09 05:24:13;;;;;;;4.68;1.10;;;;;;;;;;5113680;28;20077;-78
2022/01/09 05:26:39;;;;;;;5.53;1.60;;;;;;;;;;5113563;28;20027;-78
2022/01/09 05:29:05;;;;;;;5.20;1.52;;;;;;;;;;5113703;28;20518;-79
2022/01/09 05:31:31;;;;;;;5.85;1.55;;;;;;;;;;5113453;28;20027;-80
2022/01/09 05:33:57;;;;;;;5.45;1.23;;;;;;;;;;5095378;28;20051;-79
2022/01/09 05:36:23;;;;;;;4.97;1.50;;;;;;;;;;5113309;28;20036;-79
2022/01/09 05:38:49;;;;;;;3.85;1.33;;;;;;;;;;5113829;28;20061;-79
2022/01/09 05:41:15;;;;;;;4.15;1.10;;;;;;;;;;5095156;28;20118;-79
2022/01/09 05:43:41;;;;;;;5.20;1.75;;;;;;;;;;5113111;28;20180;-80
2022/01/09 05:46:07;;;;;;;5.45;1.30;;;;;;;;;;5113583;28;20460;-79
2022/01/09 05:48:33;;;;;;;4.32;0.98;;;;;;;;;;5113240;28;20106;-79
2022/01/09 05:50:59;;;;;;;4.65;1.30;;;;;;;;;;5113305;28;20149;-79
2022/01/09 05:53:25;;;;;;;3.47;1.10;;;;;;;;;;5112954;28;20439;-78
2022/01/09 05:55:51;;;;;;;7.30;1.27;;;;;;;;;;5113221;28;20106;-78
2022/01/09 05:58:17;;;;;;;5.45;1.65;;;;;;;;;;5112400;28;20026;-78
2022/01/09 06:00:43;;;;;;;5.40;1.40;;;;;;;;;;5113117;28;20391;-79
2022/01/09 06:03:09;;;;;;;6.50;1.85;;;;;;;;;;5113076;28;20024;-80
2022/01/09 06:05:35;;;;;;;4.38;1.23;;;;;;;;;;5112750;28;20031;-79
2022/01/09 06:08:01;;;;;;;3.70;1.27;;;;;;;;;;5113013;28;20027;-79
2022/01/09 06:10:27;;;;;;;3.75;1.15;;;;;;;;;;5112733;28;20024;-79
2022/01/09 06:12:53;;;;;;;4.18;1.35;;;;;;;;;;5112801;28;20024;-79
2022/01/09 06:15:20;;;;;;;4.35;1.25;;;;;;;;;;5112775;28;20106;-80
2022/01/09 06:17:46;;;;;;;6.10;1.20;;;;;;;;;;5112829;28;20051;-79
2022/01/09 06:20:14;;;;;;;4.05;1.25;;;;;;;;;;5112735;28;20083;-79
2022/01/09 06:22:40;;;;;;;3.47;1.10;;;;;;;;;;5094274;28;20019;-79
2022/01/09 06:25:07;;;;;;;4.30;1.50;;;;;;;;;;5112534;28;20027;-78
2022/01/09 06:27:33;;;;;;;4.78;1.38;;;;;;;;;;5112273;28;20034;-79
2022/01/09 06:29:59;;;;;;;5.50;1.63;;;;;;;;;;5112403;28;20027;-80
2022/01/09 06:32:25;;;;;;;3.88;1.35;;;;;;;;;;5112271;28;20035;-79
2022/01/09 06:34:51;;;;;;;4.35;1.20;;;;;;;;;;5112720;28;20040;-79
2022/01/09 06:37:17;;;;;;;8.10;1.88;;;;;;;;;;5112385;28;20102;-79
2022/01/09 06:39:44;;;;;;;7.32;1.73;;;;;;;;;;5112202;28;20024;-80
2022/01/09 06:42:11;;;;;;;5.65;1.48;;;;;;;;;;5112191;28;20057;-79
2022/01/09 06:44:37;;;;;;;5.05;1.80;;;;;;;;;;5112074;28;20788;-79
2022/01/09 06:47:04;;;;;;;3.92;1.25;;;;;;;;;;5093953;28;20491;-79
2022/01/09 06:49:30;;;;;;;4.68;1.20;;;;;;;;;;5111948;28;20098;-79
2022/01/09 06:51:56;;;;;;;4.75;1.20;;;;;;;;;;5112195;28;20023;-79
2022/01/09 06:54:22;;;;;;;4.75;1.35;;;;;;;;;;5111759;28;20122;-78
2022/01/09 06:56:48;;;;;;;8.68;2.00;;;;;;;;;;5112362;28;20106;-79
2022/01/09 06:59:15;;;;;;;3.17;1.10;;;;;;;;;;5112072;28;20133;-79
2022/01/09 07:01:41;;;;;;;4.63;1.23;;;;;;;;;;5093600;28;20024;-80
2022/01/09 07:04:07;;;;;;;6.53;1.60;;;;;;;;;;5112458;28;20026;-79
2022/01/09 07:06:33;;;;;;;6.25;1.58;;;;;;;;;;5111956;28;20441;-80
2022/01/09 07:08:58;;;;;;;3.30;1.20;;;;;;;;;;5111764;28;20030;-79
2022/01/09 07:11:25;;;;;;;4.60;1.80;;;;;;;;;;5093453;28;20092;-79
2022/01/09 07:13:50;;;;;;;3.45;1.10;;;;;;;;;;5093841;28;20405;-80
2022/01/09 07:16:16;;;;;;;6.05;1.58;;;;;;;;;;5111830;28;20027;-82
2022/01/09 07:18:42;;;;;;;6.40;1.50;;;;;;;;;;5093542;28;20475;-79
2022/01/09 07:21:08;;;;;;;7.65;1.50;;;;;;;;;;5093342;28;20043;-79
2022/01/09 07:23:34;;;;;;;6.55;1.33;;;;;;;;;;5093108;28;20542;-79
2022/01/09 07:26:00;;;;;;;5.60;1.75;;;;;;;;;;5111751;28;20027;-79
2022/01/09 07:28:26;;;;;;;4.57;1.30;;;;;;;;;;5093242;28;20117;-79
2022/01/09 07:30:53;;;;;;;5.22;1.27;;;;;;;;;;5111920;28;20034;-77
2022/01/09 07:33:18;;;;;;;4.88;1.27;;;;;;;;;;5111563;28;20020;-77
2022/01/09 07:35:45;;;;;;;5.05;1.27;;;;;;;;;;5093415;28;20111;-77
2022/01/09 07:38:11;;;;;;;5.30;1.10;;;;;;;;;;5111532;28;20091;-77
2022/01/09 07:40:37;;;;;;;5.53;1.42;;;;;;;;;;5111225;28;20390;-76
2022/01/09 07:43:03;;;;;;;5.05;1.40;;;;;;;;;;5111599;28;20016;-77
2022/01/09 07:45:29;;;;;;;5.85;1.42;;;;;;;;;;5111097;28;20035;-77
2022/01/09 07:47:56;;;;;;;5.55;1.27;;;;;;;;;;5111281;28;20444;-80
2022/01/09 07:50:22;;;;;;;2.90;1.35;;;;;;;;;;5111353;28;20072;-77
2022/01/09 07:52:48;;;;;;;3.10;1.05;;;;;;;;;;5110712;28;20020;-76
2022/01/09 07:55:15;;;;;;;3.92;1.20;;;;;;;;;;5110940;28;20043;-77
2022/01/09 07:57:41;;;;;;;7.25;1.40;;;;;;;;;;5111014;28;20024;-77
2022/01/09 08:00:08;;;;;;;3.90;1.10;;;;;;;;;;5111380;28;20097;-77
2022/01/09 08:02:35;;;;;;;9.38;1.98;;;;;;;;;;5111054;28;20038;-78
2022/01/09 08:05:01;;;;;;;6.63;1.83;;;;;;;;;;5111325;28;20020;-78
2022/01/09 08:07:27;;;;;;;5.00;1.33;;;;;;;;;;5111004;28;20024;-77
2022/01/09 08:09:53;;;;;;;8.70;2.22;;;;;;;;;;5111567;28;20024;-79
2022/01/09 08:12:19;;;;;;;8.40;2.95;;;;;;;;;;5110370;28;20445;-78
2022/01/09 08:14:45;;;;;;;7.68;1.88;;;;;;;;;;5111059;28;20451;-75
2022/01/09 08:17:12;;;;;;;9.38;2.17;;;;;;;;;;5092819;28;20073;-77
2022/01/09 08:19:38;;;;;;;6.78;1.88;;;;;;;;;;5110904;28;20036;-79
2022/01/09 08:22:05;;;;;;;8.93;1.92;;;;;;;;;;5114590;28;20024;-77
2022/01/09 08:24:31;;;;;;;6.88;1.52;;;;;;;;;;5114657;28;20106;-77
2022/01/09 08:26:57;;;;;;;6.65;1.80;;;;;;;;;;5115549;28;20471;-77
2022/01/09 08:29:23;;;;;;;5.47;1.55;;;;;;;;;;5115345;28;20032;-77
2022/01/09 08:31:49;;;;;;;7.47;1.92;;;;;;;;;;5114903;28;20016;-77
2022/01/09 08:34:15;;;;;;;6.45;1.38;;;;;;;;;;5114569;28;20126;-78
2022/01/09 08:36:41;;;;;;;5.68;1.92;;;;;;;;;;5114261;28;20413;-78
2022/01/09 08:39:08;;;;;;;6.90;1.60;;;;;;;;;;5095752;28;20024;-77
2022/01/09 08:41:34;;;;;;;5.95;1.58;;;;;;;;;;5114423;28;20068;-76
2022/01/09 08:44:04;;;;;;;4.90;1.63;;;;;;;;;;5113761;28;20032;-78
2022/01/09 08:46:31;;;;;;;5.80;1.42;;;;;;;;;;5113643;28;20020;-76
2022/01/09 08:48:57;;;;;;;5.28;1.58;;;;;;;;;;5113648;28;20046;-76
2022/01/09 08:51:23;;;;;;;4.82;1.30;;;;;;;;;;5111481;28;20065;-75
2022/01/09 08:53:52;;;;;;;3.30;1.20;;;;;;;;;;5113949;28;20028;-75
2022/01/09 08:56:18;;;;;;;7.90;2.58;;;;;;;;;;5113366;28;20024;-76
2022/01/09 08:58:45;;;;;;;8.00;1.42;;;;;;;;;;5113738;28;20227;-75
2022/01/09 09:01:11;;;;;;;7.85;1.75;;;;;;;;;;5113696;27;20038;-76
2022/01/09 09:03:40;;;;;;;3.78;1.30;;;;;;;;;;5113950;27;20106;-76
2022/01/09 09:06:07;;;;;;;5.25;1.58;;;;;;;;;;5104146;27;20165;-75
2022/01/09 09:08:33;;;;;;;5.47;1.65;;;;;;;;;;5104939;28;20028;-75
2022/01/09 09:10:59;;;;;;;5.75;1.98;;;;;;;;;;5101579;27;20066;-75
2022/01/09 09:13:25;;;;;;;7.13;1.60;;;;;;;;;;5107480;27;20031;-74
2022/01/09 09:15:51;;;;;;;4.28;1.58;;;;;;;;;;5115042;27;20023;-74
2022/01/09 09:18:17;;;;;;;7.68;1.38;;;;;;;;;;5104987;27;20030;-75
2022/01/09 09:20:44;;;;;;;9.90;1.23;;;;;;;;;;5117356;27;20121;-75
2022/01/09 09:23:10;;;;;;;7.38;1.33;;;;;;;;;;5089862;27;20027;-74
2022/01/09 09:25:36;;;;;;;6.75;1.40;;;;;;;;;;5106801;27;20375;-75
2022/01/09 09:28:02;;;;;;;8.88;1.88;;;;;;;;;;5103655;27;20538;-75
2022/01/09 09:30:28;;;;;;;6.90;1.77;;;;;;;;;;5087115;28;20035;-76
2022/01/09 09:32:54;;;;;;;7.95;1.70;;;;;;;;;;5102716;28;20073;-77
2022/01/09 09:35:20;;;;;;;5.80;1.63;;;;;;;;;;5107914;27;20032;-76
2022/01/09 09:37:46;;;;;;;6.60;1.48;;;;;;;;;;5110990;27;20497;-78
2022/01/09 09:40:12;;;;;;;7.10;1.40;;;17.10;64.60;;;;;;5085984;28;20145;-76
2022/01/09 09:42:38;;;;;;;6.75;1.85;;;;;;;;;;5086092;28;20115;-77
2022/01/09 09:45:05;;;;;;;6.38;1.70;;;;;;;;;;5104910;27;20396;-76
2022/01/09 09:47:32;;;;;;;6.60;1.70;;;;;;;;;;5099193;27;20042;-76
2022/01/09 09:49:58;;;;;;;9.65;1.85;;;;;;;;;;5110134;27;20076;-76
2022/01/09 09:52:25;;;;;;;8.10;1.77;;;;;;;;;;5105377;27;20020;-77
2022/01/09 09:54:51;;;;;;;7.47;2.63;;;;;;;;;;5108954;27;20020;-74
2022/01/09 09:57:18;;;;;;;10.73;1.73;;;;;;;;;;5113921;27;20023;-74
2022/01/09 09:59:45;;;;;;;10.77;2.05;;;;;;;;;;5112910;27;20047;-75
2022/01/09 10:02:15;;;;;;;8.32;1.70;;;;;;;;;;5109123;27;20015;-75
2022/01/09 10:05:02;;;;;;;7.45;2.05;;;;;;;;;;5106429;27;20047;-74
2022/01/09 10:07:29;;;;;;;13.32;1.67;;;;;;;;;;5113177;27;20090;-74
2022/01/09 10:09:59;;;;;;;7.78;1.65;;;;;;;;;;5114346;27;20023;-74
2022/01/09 10:12:26;;;;;;;6.25;1.60;;;;;;;;;;5096266;28;20478;-73
2022/01/09 10:14:53;;;;;;;10.90;2.47;;;;;;;;;;5107478;27;20032;-74
2022/01/09 10:17:20;;;;;;;7.68;1.75;;;;;;;;;;5111560;27;20024;-74
2022/01/09 10:19:46;;;;;;;7.65;1.75;;;;;;;;;;5115109;27;20054;-74
2022/01/09 10:22:27;;;;;;;5.07;2.03;;;;;;;;;;5112977;27;20051;-74
2022/01/09 10:24:53;;;;;;;7.40;1.60;;;;;;;;;;5108423;27;20373;-75
2022/01/09 10:27:36;;;;;;;5.45;1.58;;;;;;;;;;5110129;28;20530;-74
2022/01/09 10:30:04;;;;;;;7.18;1.63;;;;;;;;;;5110901;28;20506;-74
2022/01/09 10:32:30;;;;;;;11.05;1.88;;;;;;;;;;5111865;28;20062;-73
2022/01/09 10:35:10;;;;;;;8.05;1.80;;;;;;;;;;5112393;28;20491;-73
2022/01/09 10:37:37;;;;;;;5.53;1.55;;;;;;;;;;5110619;28;20572;-73
2022/01/09 10:40:08;;;;;;;8.98;2.10;;;;;;;;;;5111328;28;20031;-73
2022/01/09 10:42:34;;;;;;;11.48;1.85;;;;;;;;;;5091846;28;20041;-73
2022/01/09 10:45:20;;;;;;;9.85;2.20;;;;;;;;;;5109224;28;20035;-73
2022/01/09 10:47:48;;;;;;;7.63;1.83;;;;;;;;;;5110571;28;20039;-73
2022/01/09 10:50:28;;;;;;;10.75;1.63;;;19.80;59.90;;;;;;5111345;28;20032;-73
2022/01/09 10:53:17;;;;;;;14.02;2.50;;;19.20;60.60;;;;;;5111379;28;20035;-73
2022/01/09 10:55:45;;;;;;;6.50;2.35;;;19.20;60.60;;;;;;5112063;28;20110;-73
2022/01/09 10:58:22;;;;;;;5.07;1.80;;;19.20;60.50;;;;;;5093733;28;20019;-73
2022/01/09 11:01:09;;;;;;;6.57;2.08;;;19.10;60.40;;;;;;5111767;28;20543;-73
2022/01/09 11:03:35;;;;;;;4.90;1.80;;;19.10;59.50;;;;;;5111574;28;20072;-73
2022/01/09 11:06:02;;;;;;;4.30;1.55;;;19.10;60.30;;;;;;5111989;28;20027;-73
2022/01/09 11:08:29;;;;;;;6.88;1.65;;;19.00;59.70;;;;;;5111853;28;20030;-73
2022/01/09 11:10:55;;;;;;;3.53;1.27;;;19.00;59.80;;;;;;5112186;28;20066;-73
2022/01/09 11:13:23;;;;;;;8.38;1.98;;;19.00;59.60;;;;;;5111572;28;20023;-73
2022/01/09 11:18:35;;;;;;;7.63;1.90;;;;;;;;;;5111679;28;20476;-73
2022/01/09 11:21:01;;;;;;;4.65;1.77;;;;;;;;;;5111648;28;20023;-72
2022/01/09 11:23:34;;;;;;;6.03;1.70;;;;;;;;;;5111717;28;20047;-73
2022/01/09 11:26:02;;;;;;;6.03;1.52;;;;;;;;;;5112027;28;20020;-73
2022/01/09 11:28:33;;;;;;;4.25;1.80;;;;;;;;;;5111642;28;20028;-73
2022/01/09 11:31:25;;;;;;;6.45;2.00;;;;;;;;;;5111847;28;20095;-73
2022/01/09 11:33:57;;;;;;;5.18;2.00;;;;;;;;;;5107820;28;20047;-73
2022/01/09 11:36:27;;;;;;;6.38;2.15;;;;;;;;;;5111235;28;20386;-73
2022/01/09 11:39:11;;;;;;;5.82;2.08;;;;;;;;;;5111591;28;20023;-72
2022/01/09 11:41:37;;;;;;;7.38;2.10;;;;;;;;;;5111087;28;20487;-73
2022/01/09 11:44:06;;;;;;;8.63;1.60;;;;;;;;;;5111259;28;20085;-73
2022/01/09 11:46:32;;;;;;;4.60;1.30;;;;;;;;;;5093132;28;20049;-72
2022/01/09 11:49:01;;;;;;;4.97;1.90;;;;;;;;;;5093455;28;20024;-73
2022/01/09 11:51:30;;;;;;;7.53;2.00;;;;;;;;;;5111056;28;20107;-73
2022/01/09 11:53:56;;;;;;;9.32;1.83;;;;;;;;;;5092982;28;20040;-72
2022/01/09 11:56:44;;;;;;;6.32;1.70;;;;;;;;;;5113472;28;20023;-73
2022/01/09 11:59:16;;;;;;;4.72;1.55;;;;;;;;;;5115524;28;20022;-73
2022/01/09 12:01:42;;;;;;;7.07;1.73;;;;;;;;;;5115441;28;20032;-73
2022/01/09 12:04:28;;;;;;;5.20;1.70;;;;;;;;;;5115431;28;20033;-73
2022/01/09 12:06:56;;;;;;;4.70;1.40;;;;;;;;;;5115226;28;20042;-73
2022/01/09 12:09:42;;;;;;;5.40;1.63;;;;;;;;;;5115044;28;20023;-72
2022/01/09 12:12:09;;;;;;;4.97;1.50;;;;;;;;;;5115121;28;20027;-73
2022/01/09 12:14:54;;;;;;;6.00;1.90;;;;;;;;;;5114818;28;20042;-73
2022/01/09 12:17:23;;;;;;;4.50;1.80;;;;;;;;;;5114716;28;20016;-73
2022/01/09 12:20:07;;;;;;;6.63;2.05;;;;;;;;;;5096881;28;20047;-73
2022/01/09 12:22:53;;;;;;;6.20;1.73;;;;;;;;;;5115051;28;20024;-73
2022/01/09 12:25:25;;;;;;;8.27;2.30;;;;;;;;;;5114586;28;20444;-73
2022/01/09 12:27:56;;;;;;;4.47;1.63;;;;;;;;;;5114917;28;20065;-73
2022/01/09 12:30:32;;;;;;;6.70;1.90;;;;;;;;;;5114567;28;20016;-72
2022/01/09 12:32:58;;;;;;;7.38;1.63;;;;;;;;;;5096692;28;20031;-73
2022/01/09 12:35:25;;;;;;;4.40;1.58;;;;;;;;;;5114294;28;20039;-73
2022/01/09 12:37:53;;;;;;;4.30;1.67;;;;;;;;;;5114687;28;20471;-73
2022/01/09 12:40:20;;;;;;;4.03;1.80;;;;;;;;;;5114349;28;20539;-73
2022/01/09 12:42:50;;;;;;;5.35;1.55;;;;;;;;;;5114578;28;20026;-73
2022/01/09 12:45:21;;;;;;;4.10;1.70;;;;;;;;;;5096171;28;20066;-73
2022/01/09 12:47:47;;;;;;;5.20;1.50;;;;;;;;;;5114496;28;20023;-73
2022/01/09 12:50:13;;;;;;;6.18;1.70;;;;;;;;;;5114418;28;20020;-72
2022/01/09 12:52:39;;;;;;;6.63;1.98;;;;;;;;;;5114099;28;20050;-73
2022/01/09 12:55:06;;;;;;;4.40;1.70;;;;;;;;;;5114290;28;20036;-73
2022/01/09 12:57:51;;;;;;;5.40;1.55;;;;;;;;;;5114427;28;20136;-73
2022/01/09 13:00:24;;;;;;;5.28;1.92;;;;;;;;;;5114040;28;20028;-73
2022/01/09 13:02:54;;;;;;;4.10;1.48;;;;;;;;;;5114343;28;20459;-73
2022/01/09 13:05:27;;;;;;;4.13;1.40;;;;;;;;;;5113847;28;20072;-73
2022/01/09 13:07:56;;;;;;;6.20;1.75;;;;;;;;;;5113943;28;20501;-73
2022/01/09 13:10:32;;;;;;;4.20;1.58;;;;;;;;;;5113918;28;20027;-73
2022/01/09 13:12:59;;;;;;;4.60;1.80;;;;;;;;;;5095780;28;20024;-72
2022/01/09 13:15:35;;;;;;;5.03;1.88;;;;;;;;;;5095349;28;20473;-73
2022/01/09 13:18:02;;;;;;;5.15;1.52;;;;;;;;;;5114561;28;20024;-73
2022/01/09 13:20:28;;;;;;;4.18;1.23;;;;;;;;;;5113673;28;20543;-72
2022/01/09 13:23:07;;;;;;;5.68;1.67;;;;;;;;;;5113935;28;20035;-72
2022/01/09 13:25:46;;;;;;;5.70;1.80;;;;;;;;;;5113711;28;20031;-72
2022/01/09 13:28:19;;;;;;;5.65;1.40;;;;;;;;;;5113706;28;20023;-72
2022/01/09 13:30:45;;;;;;;4.25;1.52;;;;;;;;;;5113832;28;20387;-72
2022/01/09 13:33:11;;;;;;;7.00;2.17;;;;;;;;;;5113605;28;20023;-73
2022/01/09 13:35:37;;;;;;;4.60;1.80;;;;;;;;;;5113353;28;20510;-73
2022/01/09 13:38:03;;;;;;;5.60;1.85;;;;;;;;;;5113942;28;20035;-73
2022/01/09 13:40:30;;;;;;;4.53;1.48;;;;;;;;;;5113216;28;20023;-73
2022/01/09 13:42:56;;;;;;;5.93;1.60;;;;;;;;;;5113426;28;20559;-73
2022/01/09 13:45:23;;;;;;;5.35;2.17;;;;;;;;;;5112937;28;20492;-74
2022/01/09 13:47:59;;;;;;;3.88;1.10;;;;;;;;;;5113401;28;20028;-73
2022/01/09 13:50:29;;;;;;;4.97;1.50;;;;;;;;;;5113129;28;20378;-76
2022/01/09 13:53:05;;;;;;;6.43;1.80;;;18.90;59.90;;;;;;5113396;28;20035;-75
2022/01/09 13:55:31;;;;;;;6.90;1.52;;;17.40;60.30;;;;;;5113041;28;20049;-74
2022/01/09 13:58:03;;;;;;;5.25;1.60;;;;;;;;;;5095004;28;20031;-72
2022/01/09 14:00:29;;;;;;;5.25;1.27;;;;;;;;;;5112903;28;20114;-75
2022/01/09 14:02:57;;;;;;;5.75;1.77;;;;;;;;;;5113092;28;20023;-75
2022/01/09 14:05:24;;;;;;;3.78;1.20;;;;;;;;;;5112724;28;20020;-75
2022/01/09 14:07:51;;;;;;;5.72;1.70;;;;;;;;;;5094658;28;20028;-74
2022/01/09 14:10:18;;;;;;;5.78;1.50;;;;;;;;;;5112687;28;20019;-75
2022/01/09 14:12:45;;;;;;;6.50;1.70;;;;;;;;;;5112945;28;20023;-74
2022/01/09 14:15:19;;;;;;;5.70;1.42;;;;;;;;;;5112807;28;20032;-75
2022/01/09 14:17:49;;;;;;;5.28;1.77;;;;;;;;;;5112490;28;20107;-75
2022/01/09 14:20:18;;;;;;;4.18;1.15;;;;;;;;;;5112554;28;20028;-74
2022/01/09 14:22:48;;;;;;;3.63;1.33;;;;;;;;;;5112647;28;20102;-75
2022/01/09 14:25:16;;;;;;;5.35;1.60;;;;;;;;;;5112670;28;20024;-75
2022/01/09 14:27:44;;;;;;;6.25;1.80;;;;;;;;;;5112515;28;20038;-75
2022/01/09 14:30:23;;;;;;;3.15;1.40;;;;;;;;;;5094339;28;20019;-75
2022/01/09 14:32:51;;;;;;;4.57;1.38;;;;;;;;;;5112482;28;20042;-74
2022/01/09 14:35:27;;;;;;;6.28;1.52;;;;;;;;;;5112077;28;20180;-74
2022/01/09 14:37:57;;;;;;;6.18;1.70;;;;;;;;;;5112353;28;20016;-74
2022/01/09 14:40:23;;;;;;;4.75;1.63;;;;;;;;;;5112220;28;20526;-75
2022/01/09 14:42:49;;;;;;;4.80;1.35;;;;;;;;;;5093966;28;20110;-74
2022/01/09 14:45:15;;;;;;;4.22;1.33;;;;;;;;;;5111808;28;20126;-74
2022/01/09 14:47:41;;;;;;;3.92;1.33;;;;;;;;;;5111897;28;20532;-74